METAR Data
IDs: Format: Raw Decoded Include TAF

Data at: 0324 UTC 24 Jun 2021

METAR for:KVES (Versailles/Darke Cnt, OH, US)
Text:KVES 240315Z AUTO 16005KT 10SM CLR 18/09 A3016 RMK AO2
Temperature: 18.0°C ( 64°F)
Dewpoint: 9.0°C ( 48°F) [RH = 56%]
Pressure (altimeter):30.16 inches Hg (1021.4 mb)
Winds:from the SSE (160 degrees) at 6 MPH (5 knots; 2.6 m/s)
Visibility:10 or more sm (16+ km)
Ceiling:at least 12,000 feet AGL
Clouds:sky clear below 12,000 feet AGL
QC Flag:automated observation with no human augmentation